Abington, Pennsylvania
Current Conditions -  °F | °C
As of 6:54 PM on Thursday 18 Dec 2014 (Local Time) from KPNE Reporting Station
Broken Clouds Broken Clouds  
Wind Chill: -1°   Ceiling: 3500
Heat Index:   Visibility: 10mi
Dew Point: -5°   Wind: 8mph
Humidity: 57%   Direction: 290°WNW
Pressure: 30.04"   Gusts: NA
Location:  40.12°N, 75.12°W
Report Text: KPNE 182354Z AUTO 29007KT 10SM BKN035 03/M05 A3004 RMK AO2 SLP171 T00281050 10056 20028 50003 TSNO $
Loading
Personal Weather Stations






























Interactive Weather Map New forecast layout! Learn more

10-Day Weather Forecast

Advertisements
Track Severe Weather on mobile